sensor_id;sensor_type;location;lat;lon;timestamp;pressure;altitude;pressure_sealevel;temperature;humidity
32033;BME280;31720;52.638;9.216;2022-12-18T00:01:33;102705.81;;;-8.22;100.00
32033;BME280;31720;52.638;9.216;2022-12-18T00:04:36;102716.56;;;-8.28;100.00
32033;BME280;31720;52.638;9.216;2022-12-18T00:07:37;102709.06;;;-8.41;100.00
32033;BME280;31720;52.638;9.216;2022-12-18T00:10:39;102703.81;;;-8.44;100.00
32033;BME280;31720;52.638;9.216;2022-12-18T00:13:41;102715.16;;;-8.39;100.00
32033;BME280;31720;52.638;9.216;2022-12-18T00:16:43;102711.72;;;-8.39;100.00
32033;BME280;31720;52.638;9.216;2022-12-18T00:19:46;102721.19;;;-8.37;100.00
32033;BME280;31720;52.638;9.216;2022-12-18T00:22:48;102720.25;;;-8.39;100.00
32033;BME280;31720;52.638;9.216;2022-12-18T00:25:49;102727.00;;;-8.39;100.00
32033;BME280;31720;52.638;9.216;2022-12-18T00:28:51;102722.69;;;-8.40;100.00
32033;BME280;31720;52.638;9.216;2022-12-18T00:31:53;102716.63;;;-8.43;100.00
32033;BME280;31720;52.638;9.216;2022-12-18T00:34:56;102714.88;;;-8.44;100.00
32033;BME280;31720;52.638;9.216;2022-12-18T00:37:57;102719.19;;;-8.43;100.00
32033;BME280;31720;52.638;9.216;2022-12-18T00:40:59;102711.47;;;-8.44;100.00
32033;BME280;31720;52.638;9.216;2022-12-18T00:44:00;102709.53;;;-8.48;100.00
32033;BME280;31720;52.638;9.216;2022-12-18T00:47:01;102716.63;;;-8.43;100.00
32033;BME280;31720;52.638;9.216;2022-12-18T00:50:04;102708.91;;;-8.44;100.00
32033;BME280;31720;52.638;9.216;2022-12-18T00:53:06;102713.84;;;-8.47;100.00
32033;BME280;31720;52.638;9.216;2022-12-18T00:56:07;102705.25;;;-8.49;100.00
32033;BME280;31720;52.638;9.216;2022-12-18T00:59:09;102710.22;;;-8.51;100.00
32033;BME280;31720;52.638;9.216;2022-12-18T01:02:13;102699.88;;;-8.54;100.00
32033;BME280;31720;52.638;9.216;2022-12-18T01:05:16;102694.88;;;-8.52;100.00
32033;BME280;31720;52.638;9.216;2022-12-18T01:08:17;102706.63;;;-8.54;100.00
32033;BME280;31720;52.638;9.216;2022-12-18T01:11:20;102710.09;;;-8.54;100.00
32033;BME280;31720;52.638;9.216;2022-12-18T01:14:21;102701.28;;;-8.59;100.00
32033;BME280;31720;52.638;9.216;2022-12-18T01:17:23;102702.00;;;-8.61;100.00
32033;BME280;31720;52.638;9.216;2022-12-18T01:20:26;102711.47;;;-8.59;100.00
32033;BME280;31720;52.638;9.216;2022-12-18T01:23:27;102713.13;;;-8.59;100.00
32033;BME280;31720;52.638;9.216;2022-12-18T01:26:29;102711.38;;;-8.60;100.00
32033;BME280;31720;52.638;9.216;2022-12-18T01:29:30;102717.28;;;-8.61;100.00
32033;BME280;31720;52.638;9.216;2022-12-18T01:32:32;102715.34;;;-8.65;100.00
32033;BME280;31720;52.638;9.216;2022-12-18T01:35:40;102715.63;;;-8.61;100.00
32033;BME280;31720;52.638;9.216;2022-12-18T01:38:41;102718.34;;;-8.58;100.00
32033;BME280;31720;52.638;9.216;2022-12-18T01:41:43;102727.75;;;-8.57;100.00
32033;BME280;31720;52.638;9.216;2022-12-18T01:45:08;102730.28;;;-8.57;100.00
32033;BME280;31720;52.638;9.216;2022-12-18T01:48:22;102727.00;;;-8.54;100.00
32033;BME280;31720;52.638;9.216;2022-12-18T01:51:26;102732.03;;;-8.56;100.00
32033;BME280;31720;52.638;9.216;2022-12-18T01:54:28;102750.75;;;-8.55;100.00
32033;BME280;31720;52.638;9.216;2022-12-18T01:57:30;102741.53;;;-8.53;100.00
32033;BME280;31720;52.638;9.216;2022-12-18T02:00:32;102732.72;;;-8.58;100.00
32033;BME280;31720;52.638;9.216;2022-12-18T02:03:35;102741.78;;;-8.63;100.00
32033;BME280;31720;52.638;9.216;2022-12-18T02:06:39;102741.03;;;-8.62;100.00
32033;BME280;31720;52.638;9.216;2022-12-18T02:09:44;102725.81;;;-8.61;100.00
32033;BME280;31720;52.638;9.216;2022-12-18T02:12:50;102741.97;;;-8.60;100.00
32033;BME280;31720;52.638;9.216;2022-12-18T02:15:58;102746.28;;;-8.59;100.00
32033;BME280;31720;52.638;9.216;2022-12-18T02:19:09;102739.41;;;-8.60;100.00
32033;BME280;31720;52.638;9.216;2022-12-18T02:22:26;102741.09;;;-8.61;100.00
32033;BME280;31720;52.638;9.216;2022-12-18T02:25:40;102734.13;;;-8.63;100.00
32033;BME280;31720;52.638;9.216;2022-12-18T02:28:52;102722.13;;;-8.66;100.00
32033;BME280;31720;52.638;9.216;2022-12-18T02:31:57;102712.63;;;-8.69;100.00
32033;BME280;31720;52.638;9.216;2022-12-18T02:35:02;102728.88;;;-8.66;100.00
32033;BME280;31720;52.638;9.216;2022-12-18T02:38:06;102729.66;;;-8.68;100.00
32033;BME280;31720;52.638;9.216;2022-12-18T02:41:08;102722.91;;;-8.67;100.00
32033;BME280;31720;52.638;9.216;2022-12-18T02:44:12;102728.88;;;-8.66;100.00
32033;BME280;31720;52.638;9.216;2022-12-18T02:47:17;102721.06;;;-8.70;100.00
32033;BME280;31720;52.638;9.216;2022-12-18T02:50:22;102713.00;;;-8.62;100.00
32033;BME280;31720;52.638;9.216;2022-12-18T02:53:33;102718.16;;;-8.61;100.00
32033;BME280;31720;52.638;9.216;2022-12-18T02:56:45;102732.31;;;-8.66;100.00
32033;BME280;31720;52.638;9.216;2022-12-18T02:59:55;102734.13;;;-8.63;100.00
32033;BME280;31720;52.638;9.216;2022-12-18T03:03:02;102724.16;;;-8.75;100.00
32033;BME280;31720;52.638;9.216;2022-12-18T03:06:10;102713.22;;;-8.73;100.00
32033;BME280;31720;52.638;9.216;2022-12-18T03:09:21;102716.84;;;-8.69;100.00
32033;BME280;31720;52.638;9.216;2022-12-18T03:12:28;102715.28;;;-8.67;100.00
32033;BME280;31720;52.638;9.216;2022-12-18T03:15:35;102723.88;;;-8.65;100.00
32033;BME280;31720;52.638;9.216;2022-12-18T03:18:42;102719.66;;;-8.64;100.00
32033;BME280;31720;52.638;9.216;2022-12-18T03:21:49;102728.53;;;-8.58;100.00
32033;BME280;31720;52.638;9.216;2022-12-18T03:24:53;102734.84;;;-8.51;100.00
32033;BME280;31720;52.638;9.216;2022-12-18T03:27:58;102742.13;;;-8.43;100.00
32033;BME280;31720;52.638;9.216;2022-12-18T03:31:04;102749.22;;;-8.37;100.00
32033;BME280;31720;52.638;9.216;2022-12-18T03:34:12;102755.06;;;-8.39;100.00
32033;BME280;31720;52.638;9.216;2022-12-18T03:37:16;102747.56;;;-8.36;100.00
32033;BME280;31720;52.638;9.216;2022-12-18T03:40:19;102744.06;;;-8.38;100.00
32033;BME280;31720;52.638;9.216;2022-12-18T03:43:32;102749.09;;;-8.40;100.00
32033;BME280;31720;52.638;9.216;2022-12-18T03:46:41;102748.03;;;-8.44;100.00
32033;BME280;31720;52.638;9.216;2022-12-18T03:49:50;102735.09;;;-8.47;100.00
32033;BME280;31720;52.638;9.216;2022-12-18T03:52:57;102728.78;;;-8.53;100.00
32033;BME280;31720;52.638;9.216;2022-12-18T03:56:03;102726.31;;;-8.52;100.00
32033;BME280;31720;52.638;9.216;2022-12-18T03:59:06;102727.81;;;-8.55;100.00
32033;BME280;31720;52.638;9.216;2022-12-18T04:02:10;102721.91;;;-8.54;100.00
32033;BME280;31720;52.638;9.216;2022-12-18T04:05:13;102717.38;;;-8.60;100.00
32033;BME280;31720;52.638;9.216;2022-12-18T04:08:15;102711.94;;;-8.66;100.00
32033;BME280;31720;52.638;9.216;2022-12-18T04:11:17;102726.50;;;-8.63;100.00
32033;BME280;31720;52.638;9.216;2022-12-18T04:14:18;102732.13;;;-8.69;100.00
32033;BME280;31720;52.638;9.216;2022-12-18T04:17:21;102738.72;;;-8.73;100.00
32033;BME280;31720;52.638;9.216;2022-12-18T04:20:23;102733.53;;;-8.74;100.00
32033;BME280;31720;52.638;9.216;2022-12-18T04:23:25;102730.91;;;-8.76;100.00
32033;BME280;31720;52.638;9.216;2022-12-18T04:26:26;102724.69;;;-8.81;100.00
32033;BME280;31720;52.638;9.216;2022-12-18T04:29:28;102727.13;;;-8.82;100.00
32033;BME280;31720;52.638;9.216;2022-12-18T04:32:31;102728.00;;;-8.82;100.00
32033;BME280;31720;52.638;9.216;2022-12-18T04:35:32;102708.41;;;-8.83;100.00
32033;BME280;31720;52.638;9.216;2022-12-18T04:38:33;102708.41;;;-8.83;100.00
32033;BME280;31720;52.638;9.216;2022-12-18T04:41:35;102716.78;;;-8.85;100.00
32033;BME280;31720;52.638;9.216;2022-12-18T04:44:36;102709.75;;;-8.89;100.00
32033;BME280;31720;52.638;9.216;2022-12-18T04:47:39;102713.06;;;-8.90;100.00
32033;BME280;31720;52.638;9.216;2022-12-18T04:50:40;102715.09;;;-8.85;100.00
32033;BME280;31720;52.638;9.216;2022-12-18T04:53:42;102718.94;;;-8.77;100.00
32033;BME280;31720;52.638;9.216;2022-12-18T04:56:43;102723.53;;;-8.71;100.00
32033;BME280;31720;52.638;9.216;2022-12-18T04:59:45;102727.09;;;-8.68;100.00
32033;BME280;31720;52.638;9.216;2022-12-18T05:02:48;102740.91;;;-8.64;100.00
32033;BME280;31720;52.638;9.216;2022-12-18T05:05:49;102735.91;;;-8.62;100.00
32033;BME280;31720;52.638;9.216;2022-12-18T05:08:51;102736.06;;;-8.59;100.00
32033;BME280;31720;52.638;9.216;2022-12-18T05:11:52;102741.97;;;-8.60;100.00
32033;BME280;31720;52.638;9.216;2022-12-18T05:14:54;102735.28;;;-8.58;100.00
32033;BME280;31720;52.638;9.216;2022-12-18T05:17:57;102733.63;;;-8.58;100.00
32033;BME280;31720;52.638;9.216;2022-12-18T05:20:59;102736.25;;;-8.56;100.00
32033;BME280;31720;52.638;9.216;2022-12-18T05:24:01;102757.53;;;-8.56;100.00
32033;BME280;31720;52.638;9.216;2022-12-18T05:27:02;102761.94;;;-8.53;100.00
32033;BME280;31720;52.638;9.216;2022-12-18T05:30:04;102760.41;;;-8.50;100.00
32033;BME280;31720;52.638;9.216;2022-12-18T05:33:07;102755.69;;;-8.44;100.00
32033;BME280;31720;52.638;9.216;2022-12-18T05:36:09;102768.44;;;-8.44;100.00
32033;BME280;31720;52.638;9.216;2022-12-18T05:39:11;102771.84;;;-8.43;100.00
32033;BME280;31720;52.638;9.216;2022-12-18T05:42:12;102764.38;;;-8.40;100.00
32033;BME280;31720;52.638;9.216;2022-12-18T05:45:14;102759.03;;;-8.45;100.00
32033;BME280;31720;52.638;9.216;2022-12-18T05:48:17;102749.59;;;-8.46;100.00
32033;BME280;31720;52.638;9.216;2022-12-18T05:51:21;102754.69;;;-8.46;100.00
32033;BME280;31720;52.638;9.216;2022-12-18T05:54:23;102752.16;;;-8.46;100.00
32033;BME280;31720;52.638;9.216;2022-12-18T05:57:24;102762.25;;;-8.47;100.00
32033;BME280;31720;52.638;9.216;2022-12-18T06:00:26;102759.72;;;-8.47;100.00
32033;BME280;31720;52.638;9.216;2022-12-18T06:03:29;102769.03;;;-8.48;100.00
32033;BME280;31720;52.638;9.216;2022-12-18T06:06:30;102769.72;;;-8.50;100.00
32033;BME280;31720;52.638;9.216;2022-12-18T06:09:32;102778.16;;;-8.51;100.00
32033;BME280;31720;52.638;9.216;2022-12-18T06:12:33;102773.88;;;-8.52;100.00
32033;BME280;31720;52.638;9.216;2022-12-18T06:15:36;102770.19;;;-8.57;100.00
32033;BME280;31720;52.638;9.216;2022-12-18T06:18:39;102768.41;;;-8.58;100.00
32033;BME280;31720;52.638;9.216;2022-12-18T06:21:40;102761.66;;;-8.58;100.00
32033;BME280;31720;52.638;9.216;2022-12-18T06:24:42;102759.81;;;-8.60;100.00
32033;BME280;31720;52.638;9.216;2022-12-18T06:27:44;102766.66;;;-8.59;100.00
32033;BME280;31720;52.638;9.216;2022-12-18T06:30:46;102770.88;;;-8.60;100.00
32033;BME280;31720;52.638;9.216;2022-12-18T06:33:49;102774.16;;;-8.62;100.00
32033;BME280;31720;52.638;9.216;2022-12-18T06:36:51;102768.13;;;-8.63;100.00
32033;BME280;31720;52.638;9.216;2022-12-18T06:39:52;102781.78;;;-8.62;100.00
32033;BME280;31720;52.638;9.216;2022-12-18T06:42:54;102795.16;;;-8.66;100.00
32033;BME280;31720;52.638;9.216;2022-12-18T06:45:59;102787.38;;;-8.68;100.00
32033;BME280;31720;52.638;9.216;2022-12-18T06:49:01;102783.00;;;-8.71;100.00
32033;BME280;31720;52.638;9.216;2022-12-18T06:52:03;102787.13;;;-8.73;100.00
32033;BME280;31720;52.638;9.216;2022-12-18T06:55:06;102787.03;;;-8.74;100.00
32033;BME280;31720;52.638;9.216;2022-12-18T06:58:08;102776.66;;;-8.77;100.00
32033;BME280;31720;52.638;9.216;2022-12-18T07:01:11;102783.44;;;-8.78;100.00
32033;BME280;31720;52.638;9.216;2022-12-18T07:04:14;102796.28;;;-8.76;100.00
32033;BME280;31720;52.638;9.216;2022-12-18T07:07:15;102792.75;;;-8.78;100.00
32033;BME280;31720;52.638;9.216;2022-12-18T07:10:16;102810.41;;;-8.81;100.00
32033;BME280;31720;52.638;9.216;2022-12-18T07:13:18;102816.28;;;-8.82;100.00
32033;BME280;31720;52.638;9.216;2022-12-18T07:16:21;102816.28;;;-8.82;100.00
32033;BME280;31720;52.638;9.216;2022-12-18T07:19:25;102824.91;;;-8.80;100.00
32033;BME280;31720;52.638;9.216;2022-12-18T07:22:26;102831.56;;;-8.82;100.00
32033;BME280;31720;52.638;9.216;2022-12-18T07:25:28;102835.78;;;-8.83;100.00
32033;BME280;31720;52.638;9.216;2022-12-18T07:28:29;102833.84;;;-8.87;100.00
32033;BME280;31720;52.638;9.216;2022-12-18T07:31:31;102820.31;;;-8.86;100.00
32033;BME280;31720;52.638;9.216;2022-12-18T07:34:34;102821.31;;;-8.84;100.00
32033;BME280;31720;52.638;9.216;2022-12-18T07:37:35;102818.75;;;-8.84;100.00
32033;BME280;31720;52.638;9.216;2022-12-18T07:40:37;102816.00;;;-8.87;100.00
32033;BME280;31720;52.638;9.216;2022-12-18T07:43:39;102810.75;;;-8.90;100.00
32033;BME280;31720;52.638;9.216;2022-12-18T07:46:41;102817.69;;;-8.87;100.00
32033;BME280;31720;52.638;9.216;2022-12-18T07:49:44;102817.75;;;-8.86;100.00
32033;BME280;31720;52.638;9.216;2022-12-18T07:52:45;102809.25;;;-8.86;100.00
32033;BME280;31720;52.638;9.216;2022-12-18T07:55:47;102804.94;;;-8.87;100.00
32033;BME280;31720;52.638;9.216;2022-12-18T07:58:48;102812.69;;;-8.86;100.00
32033;BME280;31720;52.638;9.216;2022-12-18T08:01:50;102809.44;;;-8.83;100.00
32033;BME280;31720;52.638;9.216;2022-12-18T08:04:53;102817.16;;;-8.82;100.00
32033;BME280;31720;52.638;9.216;2022-12-18T08:07:54;102810.50;;;-8.80;100.00
32033;BME280;31720;52.638;9.216;2022-12-18T08:10:56;102814.81;;;-8.79;100.00
32033;BME280;31720;52.638;9.216;2022-12-18T08:13:58;102817.63;;;-8.74;100.00
32033;BME280;31720;52.638;9.216;2022-12-18T08:16:59;102814.38;;;-8.72;100.00
32033;BME280;31720;52.638;9.216;2022-12-18T08:20:02;102799.44;;;-8.65;100.00
32033;BME280;31720;52.638;9.216;2022-12-18T08:23:04;102799.78;;;-8.59;100.00
32033;BME280;31720;52.638;9.216;2022-12-18T08:26:05;102789.78;;;-8.56;100.00
32033;BME280;31720;52.638;9.216;2022-12-18T08:29:08;102786.53;;;-8.54;100.00
32033;BME280;31720;52.638;9.216;2022-12-18T08:32:09;102791.91;;;-8.49;100.00
32033;BME280;31720;52.638;9.216;2022-12-18T08:35:12;102791.44;;;-8.42;100.00
32033;BME280;31720;52.638;9.216;2022-12-18T08:38:14;102778.06;;;-8.38;100.00
32033;BME280;31720;52.638;9.216;2022-12-18T08:41:17;102785.06;;;-8.34;100.00
32033;BME280;31720;52.638;9.216;2022-12-18T08:44:18;102777.69;;;-8.29;100.00
32033;BME280;31720;52.638;9.216;2022-12-18T08:47:37;102775.56;;;-8.22;100.00
32033;BME280;31720;52.638;9.216;2022-12-18T08:50:40;102773.34;;;-8.15;100.00
32033;BME280;31720;52.638;9.216;2022-12-18T08:53:42;102777.22;;;-8.07;100.00
32033;BME280;31720;52.638;9.216;2022-12-18T08:56:44;102777.63;;;-8.00;100.00
32033;BME280;31720;52.638;9.216;2022-12-18T08:59:45;102773.75;;;-7.93;100.00
32033;BME280;31720;52.638;9.216;2022-12-18T09:02:48;102764.84;;;-7.85;100.00
32033;BME280;31720;52.638;9.216;2022-12-18T09:05:51;102759.34;;;-7.76;100.00
32033;BME280;31720;52.638;9.216;2022-12-18T09:08:52;102756.31;;;-7.69;100.00
32033;BME280;31720;52.638;9.216;2022-12-18T09:11:54;102755.88;;;-7.62;100.00
32033;BME280;31720;52.638;9.216;2022-12-18T09:14:55;102747.81;;;-7.53;100.00
32033;BME280;31720;52.638;9.216;2022-12-18T09:17:57;102753.41;;;-7.44;100.00
32033;BME280;31720;52.638;9.216;2022-12-18T09:21:00;102753.88;;;-7.35;100.00
32033;BME280;31720;52.638;9.216;2022-12-18T09:24:12;102757.78;;;-7.25;100.00
32033;BME280;31720;52.638;9.216;2022-12-18T09:27:13;102754.19;;;-7.12;100.00
32033;BME280;31720;52.638;9.216;2022-12-18T09:30:15;102748.75;;;-7.02;100.00
32033;BME280;31720;52.638;9.216;2022-12-18T09:33:16;102751.00;;;-6.91;100.00
32033;BME280;31720;52.638;9.216;2022-12-18T09:36:19;102766.16;;;-6.77;100.00
32033;BME280;31720;52.638;9.216;2022-12-18T09:39:21;102780.38;;;-6.66;100.00
32033;BME280;31720;52.638;9.216;2022-12-18T09:42:23;102784.56;;;-6.50;100.00
32033;BME280;31720;52.638;9.216;2022-12-18T09:45:24;102793.78;;;-6.36;100.00
32033;BME280;31720;52.638;9.216;2022-12-18T09:48:30;102789.41;;;-6.21;100.00
32033;BME280;31720;52.638;9.216;2022-12-18T09:51:37;102794.31;;;-6.07;100.00
32033;BME280;31720;52.638;9.216;2022-12-18T09:54:42;102787.13;;;-5.97;100.00
32033;BME280;31720;52.638;9.216;2022-12-18T09:57:48;102787.69;;;-5.84;100.00
32033;BME280;31720;52.638;9.216;2022-12-18T10:00:51;102803.59;;;-5.72;100.00
32033;BME280;31720;52.638;9.216;2022-12-18T10:03:53;102799.72;;;-5.64;100.00
32033;BME280;31720;52.638;9.216;2022-12-18T10:07:01;102794.03;;;-5.58;100.00
32033;BME280;31720;52.638;9.216;2022-12-18T10:10:08;102794.56;;;-5.46;100.00
32033;BME280;31720;52.638;9.216;2022-12-18T10:13:19;102790.13;;;-5.31;100.00
32033;BME280;31720;52.638;9.216;2022-12-18T10:16:27;102797.47;;;-5.19;100.00
32033;BME280;31720;52.638;9.216;2022-12-18T10:19:38;102803.97;;;-5.08;100.00
32033;BME280;31720;52.638;9.216;2022-12-18T10:22:53;102800.03;;;-5.00;100.00
32033;BME280;31720;52.638;9.216;2022-12-18T10:26:02;102785.03;;;-4.91;100.00
32033;BME280;31720;52.638;9.216;2022-12-18T10:29:08;102779.50;;;-4.80;100.00
32033;BME280;31720;52.638;9.216;2022-12-18T10:32:14;102781.59;;;-4.72;100.00
32033;BME280;31720;52.638;9.216;2022-12-18T10:35:19;102779.22;;;-4.67;100.00
32033;BME280;31720;52.638;9.216;2022-12-18T10:38:25;102774.38;;;-4.60;100.00
32033;BME280;31720;52.638;9.216;2022-12-18T10:41:27;102769.63;;;-4.50;100.00
32033;BME280;31720;52.638;9.216;2022-12-18T10:44:31;102774.06;;;-4.46;100.00
32033;BME280;31720;52.638;9.216;2022-12-18T10:47:33;102751.34;;;-4.37;100.00
32033;BME280;31720;52.638;9.216;2022-12-18T10:50:36;102748.16;;;-4.31;100.00
32033;BME280;31720;52.638;9.216;2022-12-18T10:53:41;102722.88;;;-4.22;100.00
32033;BME280;31720;52.638;9.216;2022-12-18T10:56:44;102737.63;;;-4.17;100.00
32033;BME280;31720;52.638;9.216;2022-12-18T10:59:50;102737.00;;;-4.11;100.00
32033;BME280;31720;52.638;9.216;2022-12-18T11:02:52;102739.97;;;-4.00;100.00
32033;BME280;31720;52.638;9.216;2022-12-18T11:06:01;102731.03;;;-3.88;100.00
32033;BME280;31720;52.638;9.216;2022-12-18T11:09:08;102734.56;;;-3.86;100.00
32033;BME280;31720;52.638;9.216;2022-12-18T11:12:22;102726.19;;;-3.80;100.00
32033;BME280;31720;52.638;9.216;2022-12-18T11:15:27;102726.66;;;-3.68;100.00
32033;BME280;31720;52.638;9.216;2022-12-18T11:18:33;102720.91;;;-3.61;100.00
32033;BME280;31720;52.638;9.216;2022-12-18T11:21:39;102725.63;;;-3.49;100.00
32033;BME280;31720;52.638;9.216;2022-12-18T11:24:42;102724.34;;;-3.36;100.00
32033;BME280;31720;52.638;9.216;2022-12-18T11:27:48;102715.34;;;-3.25;100.00
32033;BME280;31720;52.638;9.216;2022-12-18T11:31:09;102712.22;;;-3.16;100.00
32033;BME280;31720;52.638;9.216;2022-12-18T11:34:16;102708.22;;;-3.08;100.00
32033;BME280;31720;52.638;9.216;2022-12-18T11:37:21;102688.81;;;-2.98;100.00
32033;BME280;31720;52.638;9.216;2022-12-18T11:40:27;102676.88;;;-2.96;100.00
32033;BME280;31720;52.638;9.216;2022-12-18T11:43:35;102671.59;;;-3.01;100.00
32033;BME280;31720;52.638;9.216;2022-12-18T11:46:45;102663.16;;;-2.97;100.00
32033;BME280;31720;52.638;9.216;2022-12-18T11:49:49;102667.22;;;-3.03;100.00
32033;BME280;31720;52.638;9.216;2022-12-18T11:52:50;102664.03;;;-2.96;100.00
32033;BME280;31720;52.638;9.216;2022-12-18T11:56:01;102664.16;;;-2.92;100.00
32033;BME280;31720;52.638;9.216;2022-12-18T11:59:12;102646.53;;;-2.81;100.00
32033;BME280;31720;52.638;9.216;2022-12-18T12:02:29;102637.00;;;-2.84;100.00
32033;BME280;31720;52.638;9.216;2022-12-18T12:05:48;102637.28;;;-2.74;100.00
32033;BME280;31720;52.638;9.216;2022-12-18T12:09:03;102643.38;;;-2.72;100.00
32033;BME280;31720;52.638;9.216;2022-12-18T12:12:23;102642.84;;;-2.62;100.00
32033;BME280;31720;52.638;9.216;2022-12-18T12:15:36;102636.16;;;-2.56;100.00
32033;BME280;31720;52.638;9.216;2022-12-18T12:18:51;102635.41;;;-2.53;100.00
32033;BME280;31720;52.638;9.216;2022-12-18T12:22:00;102627.75;;;-2.50;100.00
32033;BME280;31720;52.638;9.216;2022-12-18T12:25:21;102619.38;;;-2.44;100.00
32033;BME280;31720;52.638;9.216;2022-12-18T12:28:42;102617.69;;;-2.42;100.00
32033;BME280;31720;52.638;9.216;2022-12-18T12:31:57;102608.38;;;-2.39;100.00
32033;BME280;31720;52.638;9.216;2022-12-18T12:35:14;102602.28;;;-2.41;100.00
32033;BME280;31720;52.638;9.216;2022-12-18T12:38:21;102601.56;;;-2.37;100.00
32033;BME280;31720;52.638;9.216;2022-12-18T12:41:27;102601.63;;;-2.35;100.00
32033;BME280;31720;52.638;9.216;2022-12-18T12:44:52;102597.50;;;-2.28;100.00
32033;BME280;31720;52.638;9.216;2022-12-18T12:47:56;102588.22;;;-2.23;100.00
32033;BME280;31720;52.638;9.216;2022-12-18T12:51:01;102598.72;;;-2.17;100.00
32033;BME280;31720;52.638;9.216;2022-12-18T12:54:13;102586.56;;;-2.21;100.00
32033;BME280;31720;52.638;9.216;2022-12-18T12:57:20;102587.44;;;-2.21;100.00
32033;BME280;31720;52.638;9.216;2022-12-18T13:00:29;102595.03;;;-2.25;100.00
32033;BME280;31720;52.638;9.216;2022-12-18T13:03:41;102594.94;;;-2.28;100.00
32033;BME280;31720;52.638;9.216;2022-12-18T13:06:48;102602.84;;;-2.22;100.00
32033;BME280;31720;52.638;9.216;2022-12-18T13:10:23;102599.38;;;-2.23;100.00
32033;BME280;31720;52.638;9.216;2022-12-18T13:13:49;102591.00;;;-2.17;100.00
32033;BME280;31720;52.638;9.216;2022-12-18T13:20:36;102591.03;;;-2.16;100.00
32033;BME280;31720;52.638;9.216;2022-12-18T13:23:38;102586.84;;;-2.12;100.00
32033;BME280;31720;52.638;9.216;2022-12-18T13:26:40;102582.53;;;-2.13;100.00
32033;BME280;31720;52.638;9.216;2022-12-18T13:29:42;102580.81;;;-2.13;100.00
32033;BME280;31720;52.638;9.216;2022-12-18T13:32:45;102573.88;;;-2.15;100.00
32033;BME280;31720;52.638;9.216;2022-12-18T13:35:52;102569.44;;;-2.19;100.00
32033;BME280;31720;52.638;9.216;2022-12-18T13:42:39;102555.75;;;-2.18;100.00
32033;BME280;31720;52.638;9.216;2022-12-18T13:46:00;102563.47;;;-2.18;100.00
32033;BME280;31720;52.638;9.216;2022-12-18T13:49:14;102554.00;;;-2.19;100.00
32033;BME280;31720;52.638;9.216;2022-12-18T13:52:21;102547.97;;;-2.20;100.00
32033;BME280;31720;52.638;9.216;2022-12-18T13:55:23;102548.69;;;-2.25;100.00
32033;BME280;31720;52.638;9.216;2022-12-18T13:58:25;102546.13;;;-2.25;100.00
32033;BME280;31720;52.638;9.216;2022-12-18T14:01:26;102541.72;;;-2.28;100.00
32033;BME280;31720;52.638;9.216;2022-12-18T14:04:31;102533.13;;;-2.28;100.00
32033;BME280;31720;52.638;9.216;2022-12-18T14:07:33;102515.97;;;-2.28;100.00
32033;BME280;31720;52.638;9.216;2022-12-18T14:10:35;102515.72;;;-2.37;100.00
32033;BME280;31720;52.638;9.216;2022-12-18T14:13:41;102508.06;;;-2.36;100.00
32033;BME280;31720;52.638;9.216;2022-12-18T14:16:43;102515.56;;;-2.43;100.00
32033;BME280;31720;52.638;9.216;2022-12-18T14:19:49;102507.94;;;-2.40;100.00
32033;BME280;31720;52.638;9.216;2022-12-18T14:22:51;102506.16;;;-2.41;100.00
32033;BME280;31720;52.638;9.216;2022-12-18T14:25:53;102502.81;;;-2.39;100.00
32033;BME280;31720;52.638;9.216;2022-12-18T14:28:54;102502.69;;;-2.43;100.00
32033;BME280;31720;52.638;9.216;2022-12-18T14:32:14;102502.81;;;-2.39;100.00
32033;BME280;31720;52.638;9.216;2022-12-18T14:35:18;102498.31;;;-2.46;100.00
32033;BME280;31720;52.638;9.216;2022-12-18T14:38:24;102499.16;;;-2.47;100.00
32033;BME280;31720;52.638;9.216;2022-12-18T14:41:26;102501.59;;;-2.51;100.00
32033;BME280;31720;52.638;9.216;2022-12-18T14:44:29;102503.31;;;-2.52;100.00
32033;BME280;31720;52.638;9.216;2022-12-18T14:47:30;102499.00;;;-2.53;100.00
32033;BME280;31720;52.638;9.216;2022-12-18T14:50:33;102492.13;;;-2.52;100.00
32033;BME280;31720;52.638;9.216;2022-12-18T14:53:37;102486.13;;;-2.53;100.00
32033;BME280;31720;52.638;9.216;2022-12-18T14:56:44;102484.31;;;-2.56;100.00
32033;BME280;31720;52.638;9.216;2022-12-18T14:59:47;102479.03;;;-2.60;100.00
32033;BME280;31720;52.638;9.216;2022-12-18T15:02:50;102485.78;;;-2.64;100.00
32033;BME280;31720;52.638;9.216;2022-12-18T15:05:55;102475.44;;;-2.67;100.00
32033;BME280;31720;52.638;9.216;2022-12-18T15:08:57;102473.59;;;-2.71;100.00
32033;BME280;31720;52.638;9.216;2022-12-18T15:12:00;102474.38;;;-2.73;100.00
32033;BME280;31720;52.638;9.216;2022-12-18T15:15:02;102462.09;;;-2.82;100.00
32033;BME280;31720;52.638;9.216;2022-12-18T15:18:10;102471.63;;;-2.79;100.00
32033;BME280;31720;52.638;9.216;2022-12-18T15:21:18;102473.38;;;-2.78;100.00
32033;BME280;31720;52.638;9.216;2022-12-18T15:24:26;102476.50;;;-2.89;100.00
32033;BME280;31720;52.638;9.216;2022-12-18T15:27:30;102473.91;;;-2.90;100.00
32033;BME280;31720;52.638;9.216;2022-12-18T15:30:32;102464.47;;;-2.90;100.00
32033;BME280;31720;52.638;9.216;2022-12-18T15:33:35;102457.50;;;-2.94;100.00
32033;BME280;31720;52.638;9.216;2022-12-18T15:36:39;102442.78;;;-2.98;100.00
32033;BME280;31720;52.638;9.216;2022-12-18T15:39:42;102441.00;;;-3.00;100.00
32033;BME280;31720;52.638;9.216;2022-12-18T15:42:43;102437.53;;;-3.02;100.00
32033;BME280;31720;52.638;9.216;2022-12-18T15:46:04;102421.16;;;-3.04;100.00
32033;BME280;31720;52.638;9.216;2022-12-18T15:49:07;102433.09;;;-3.07;100.00
32033;BME280;31720;52.638;9.216;2022-12-18T15:52:12;102425.41;;;-3.07;100.00
32033;BME280;31720;52.638;9.216;2022-12-18T15:55:26;102406.50;;;-3.09;100.00
32033;BME280;31720;52.638;9.216;2022-12-18T15:58:45;102404.00;;;-3.06;100.00
32033;BME280;31720;52.638;9.216;2022-12-18T16:01:48;102399.78;;;-3.03;100.00